Terminal Aerodrome Forecast
Issued by NWS Quad Cities IA IL

Home | Current Version | Previous Version | Text Only | Print | Product List | Glossary On
Versions: 1 2 3 4 5 6 7 8 9 10 11 12 13 14 15 16 17 18 19 20
000
FTUS43 KDVN 242300
TAFDBQ
TAF
KDBQ 242328Z 2500/2524 24005KT 3SM -RA BR SCT015 OVC025
      TEMPO 2500/2502 1 1/2SM -RA BR OVC015
     FM250300 32012KT P6SM -RA BKN022
     FM250500 32010G18KT P6SM SCT030 BKN100
     FM250800 32009KT P6SM SCT150=

USA.gov is the U.S. government's official web portal to all federal, state and local government web resources and services.